Time;durP1;ratioP1;P1;durP2;ratioP2;P2;SDS_P1;SDS_P2;PMS_P1;PMS_P2;Temp;Humidity;BMP_temperature;BMP_pressure;BME280_temperature;BME280_humidity;BME280_pressure;Samples;Min_cycle;Max_cycle;Signal;HPM_P1;HPM_P2
2024/03/25 00:02:09;;;;;;;6.23;2.00;;;4.00;99.90;;;;;;5091857;28;20391;-63
2024/03/25 00:04:35;;;;;;;1.90;1.80;;;4.10;99.90;;;;;;5091738;28;20165;-63
2024/03/25 00:07:01;;;;;;;2.58;1.55;;;4.30;99.90;;;;;;5091742;28;20228;-63
2024/03/25 00:09:27;;;;;;;2.58;1.75;;;4.20;99.90;;;;;;5091240;28;20197;-63
2024/03/25 00:11:56;;;;;;;2.40;1.60;;;4.20;99.90;;;;;;5091737;28;20165;-63
2024/03/25 00:14:22;;;;;;;1.95;1.85;;;4.20;99.90;;;;;;5092540;28;20435;-63
2024/03/25 00:16:47;;;;;;;3.73;1.80;;;4.20;99.90;;;;;;5091922;28;20173;-63
2024/03/25 00:19:13;;;;;;;2.53;2.10;;;4.20;99.90;;;;;;5091401;28;20196;-63
2024/03/25 00:21:39;;;;;;;4.83;1.93;;;4.20;99.90;;;;;;5091594;28;20177;-63
2024/03/25 00:24:05;;;;;;;3.00;1.43;;;4.30;99.90;;;;;;5091596;28;20177;-63
2024/03/25 00:26:30;;;;;;;1.67;1.25;;;4.30;99.90;;;;;;5091679;28;20200;-63
2024/03/25 00:28:56;;;;;;;4.00;2.10;;;4.20;99.90;;;;;;5091153;28;20681;-63
2024/03/25 00:31:22;;;;;;;2.43;2.20;;;4.10;99.90;;;;;;5091615;28;20250;-63
2024/03/25 00:33:47;;;;;;;1.47;1.30;;;4.10;99.90;;;;;;5091601;28;20569;-63
2024/03/25 00:36:13;;;;;;;2.63;1.50;;;4.20;99.90;;;;;;5091607;28;20247;-63
2024/03/25 00:38:39;;;;;;;5.13;2.07;;;4.20;99.90;;;;;;5091050;28;20255;-63
2024/03/25 00:41:05;;;;;;;1.37;1.27;;;4.20;99.90;;;;;;5091446;28;20175;-63
2024/03/25 00:43:30;;;;;;;2.00;1.70;;;4.20;99.90;;;;;;5091346;28;20831;-63
2024/03/25 00:45:56;;;;;;;1.70;1.50;;;4.10;99.90;;;;;;5091446;28;20181;-63
2024/03/25 00:48:22;;;;;;;2.57;1.80;;;4.20;99.90;;;;;;5091549;28;20601;-63
2024/03/25 00:50:48;;;;;;;2.45;2.22;;;4.10;99.90;;;;;;5091318;28;20441;-63
2024/03/25 00:53:14;;;;;;;1.50;1.40;;;4.10;99.90;;;;;;5095014;28;20176;-63
2024/03/25 00:55:40;;;;;;;2.03;1.93;;;4.10;99.90;;;;;;5095356;28;20430;-63
2024/03/25 00:58:06;;;;;;;1.97;1.43;;;4.20;99.90;;;;;;5095103;28;20222;-63
2024/03/25 01:00:31;;;;;;;2.40;2.20;;;4.20;99.90;;;;;;5094720;28;20448;-63
2024/03/25 01:02:57;;;;;;;3.60;1.80;;;4.20;99.90;;;;;;5094938;28;20177;-63
2024/03/25 01:05:23;;;;;;;2.00;1.47;;;4.20;99.90;;;;;;5094795;28;20164;-63
2024/03/25 01:07:48;;;;;;;2.37;2.17;;;4.30;99.90;;;;;;5094661;28;20738;-62
2024/03/25 01:10:15;;;;;;;2.50;2.20;;;4.40;99.90;;;;;;5094468;28;20176;-63
2024/03/25 01:12:41;;;;;;;1.20;1.20;;;4.40;99.90;;;;;;5094782;28;20995;-63
2024/03/25 01:15:09;;;;;;;2.37;2.17;;;4.50;99.90;;;;;;5094744;28;20204;-63
2024/03/25 01:17:38;;;;;;;1.35;1.30;;;4.60;99.90;;;;;;5094549;28;20457;-63
2024/03/25 01:20:05;;;;;;;2.40;1.50;;;4.70;99.90;;;;;;5094261;28;20185;-63
2024/03/25 01:22:31;;;;;;;5.47;1.67;;;4.80;99.90;;;;;;5094624;28;20260;-63
2024/03/25 01:24:57;;;;;;;3.42;2.10;;;4.80;99.90;;;;;;5094517;28;20180;-63
2024/03/25 01:27:23;;;;;;;3.60;2.05;;;4.80;99.90;;;;;;5094422;28;20258;-63
2024/03/25 01:29:48;;;;;;;2.40;2.20;;;4.80;99.90;;;;;;5094179;28;20189;-63
2024/03/25 01:32:14;;;;;;;2.30;2.10;;;4.80;99.90;;;;;;5094492;28;20399;-63
2024/03/25 01:34:40;;;;;;;2.20;2.03;;;4.80;99.90;;;;;;5094327;28;20176;-64
2024/03/25 01:37:06;;;;;;;2.93;2.10;;;4.80;99.90;;;;;;5094719;28;20173;-63
2024/03/25 01:39:31;;;;;;;2.10;1.73;;;4.80;99.90;;;;;;5093915;28;20196;-63
2024/03/25 01:41:57;;;;;;;2.93;1.80;;;4.70;99.90;;;;;;5094184;28;20211;-64
2024/03/25 01:44:22;;;;;;;1.43;1.33;;;4.80;99.90;;;;;;5094122;28;20168;-63
2024/03/25 01:46:48;;;;;;;9.07;1.33;;;4.70;99.90;;;;;;5093997;28;20622;-63
2024/03/25 01:49:14;;;;;;;3.23;1.80;;;4.50;99.90;;;;;;5093366;28;20267;-64
2024/03/25 01:51:41;;;;;;;2.20;1.95;;;4.40;99.90;;;;;;5094003;28;20207;-64
2024/03/25 01:54:08;;;;;;;2.35;1.95;;;4.40;99.90;;;;;;5093464;28;20586;-64
2024/03/25 01:56:36;;;;;;;3.20;1.80;;;4.40;99.90;;;;;;5094015;28;20568;-63
2024/03/25 01:59:03;;;;;;;3.42;2.20;;;4.50;99.90;;;;;;5093640;28;20211;-63
2024/03/25 02:01:29;;;;;;;1.90;1.63;;;4.50;99.90;;;;;;5094305;28;20172;-64
2024/03/25 02:03:56;;;;;;;2.00;1.75;;;4.50;99.90;;;;;;5093134;28;20181;-64
2024/03/25 02:06:22;;;;;;;1.73;1.63;;;4.50;99.90;;;;;;5093587;28;20192;-64
2024/03/25 02:08:49;;;;;;;2.20;2.00;;;4.60;99.90;;;;;;5093305;28;20184;-63
2024/03/25 02:11:16;;;;;;;3.95;1.95;;;4.70;99.90;;;;;;5093634;28;20418;-64
2024/03/25 02:13:41;;;;;;;2.45;2.25;;;4.80;99.90;;;;;;5093498;28;20177;-63
2024/03/25 02:16:07;;;;;;;2.97;2.10;;;4.80;99.90;;;;;;5093333;28;20172;-63
2024/03/25 02:18:33;;;;;;;4.13;1.90;;;4.90;99.90;;;;;;5093189;28;20173;-64
2024/03/25 02:20:59;;;;;;;3.37;2.80;;;4.90;99.90;;;;;;5093277;28;20483;-64
2024/03/25 02:23:26;;;;;;;3.45;2.20;;;4.80;99.90;;;;;;5093284;28;20435;-64
2024/03/25 02:25:53;;;;;;;3.05;2.38;;;4.80;99.90;;;;;;5093217;28;20181;-63
2024/03/25 02:28:19;;;;;;;2.45;1.92;;;4.80;99.90;;;;;;5093208;28;20172;-64
2024/03/25 02:30:45;;;;;;;2.65;1.88;;;4.70;99.90;;;;;;5093110;28;20242;-64
2024/03/25 02:33:11;;;;;;;3.22;2.15;;;4.60;99.90;;;;;;5092833;28;20173;-63
2024/03/25 02:35:40;;;;;;;2.70;2.00;;;4.60;99.90;;;;;;5093232;28;20643;-62
2024/03/25 02:38:06;;;;;;;4.03;2.25;;;4.50;99.90;;;;;;5074985;28;20188;-63
2024/03/25 02:40:33;;;;;;;2.50;2.30;;;4.40;99.90;;;;;;5092877;28;20189;-63
2024/03/25 02:42:59;;;;;;;1.55;1.45;;;4.30;99.90;;;;;;5092979;28;20172;-64
2024/03/25 02:45:25;;;;;;;3.72;1.95;;;4.30;99.90;;;;;;5092817;28;20177;-63
2024/03/25 02:47:51;;;;;;;3.10;2.80;;;4.30;99.90;;;;;;5092504;28;20207;-64
2024/03/25 02:50:17;;;;;;;3.83;2.15;;;4.40;99.90;;;;;;5092422;28;20294;-63
2024/03/25 02:52:44;;;;;;;5.53;3.83;;;4.40;99.90;;;;;;5092715;28;20233;-63
2024/03/25 02:55:10;;;;;;;3.42;3.10;;;4.40;99.90;;;;;;5092734;28;20409;-64
2024/03/25 02:57:35;;;;;;;3.03;2.10;;;4.40;99.90;;;;;;5093594;28;20519;-63
2024/03/25 03:00:02;;;;;;;2.87;2.67;;;4.40;99.90;;;;;;5092209;28;20681;-63
2024/03/25 03:02:27;;;;;;;2.20;2.10;;;4.40;99.90;;;;;;5092813;28;20260;-64
2024/03/25 03:04:53;;;;;;;17.70;3.47;;;4.40;99.90;;;;;;5092862;28;20219;-64
2024/03/25 03:07:19;;;;;;;3.17;2.87;;;4.40;99.90;;;;;;5092481;28;20200;-63
2024/03/25 03:09:44;;;;;;;3.10;2.37;;;4.50;99.90;;;;;;5092252;28;20586;-63
2024/03/25 03:12:11;;;;;;;2.60;1.93;;;4.70;99.90;;;;;;5092551;28;20757;-63
2024/03/25 03:14:37;;;;;;;15.00;2.58;;;4.80;99.90;;;;;;5090993;28;20170;-64
2024/03/25 03:17:04;;;;;;;6.80;4.87;;;4.80;99.90;;;;;;5092076;28;20677;-63
2024/03/25 03:19:31;;;;;;;10.73;4.00;;;4.80;99.90;;;;;;5091134;28;20249;-63
2024/03/25 03:22:02;;;;;;;10.02;3.22;;;4.80;99.90;;;;;;5091796;28;20172;-62
2024/03/25 03:24:27;;;;;;;11.85;4.55;;;4.80;99.90;;;;;;5091741;28;20164;-63
2024/03/25 03:26:53;;;;;;;14.03;4.00;;;4.80;99.90;;;;;;5091610;28;20192;-63
2024/03/25 03:29:23;;;;;;;20.97;3.30;;;4.80;99.90;;;;;;5090928;28;20181;-63
2024/03/25 03:31:49;;;;;;;18.90;4.93;;;4.80;99.90;;;;;;5091766;28;20518;-63
2024/03/25 03:34:14;;;;;;;18.53;4.53;;;4.80;99.90;;;;;;5091486;28;20184;-63
2024/03/25 03:36:41;;;;;;;8.73;3.37;;;4.80;99.90;;;;;;5090048;28;20180;-63
2024/03/25 03:39:10;;;;;;;18.23;4.15;;;4.70;99.90;;;;;;5091277;28;20662;-63
2024/03/25 03:41:36;;;;;;;4.22;3.00;;;4.70;99.90;;;;;;5091155;28;20178;-63
2024/03/25 03:44:02;;;;;;;10.67;2.73;;;4.80;99.90;;;;;;5091940;28;20174;-63
2024/03/25 03:46:28;;;;;;;3.40;2.63;;;4.80;99.90;;;;;;5091872;28;20523;-63
2024/03/25 03:48:54;;;;;;;8.87;3.60;;;4.90;99.90;;;;;;5091779;28;20220;-63
2024/03/25 03:51:20;;;;;;;3.27;2.30;;;5.00;99.90;;;;;;5091518;28;20442;-63
2024/03/25 03:53:46;;;;;;;3.83;3.07;;;5.00;99.90;;;;;;5091276;28;20169;-63
2024/03/25 03:56:11;;;;;;;2.70;2.07;;;5.00;99.90;;;;;;5091886;28;20413;-64
2024/03/25 03:58:37;;;;;;;2.97;2.23;;;4.90;99.90;;;;;;5091108;28;20271;-64
2024/03/25 04:01:05;;;;;;;2.27;2.00;;;5.00;99.90;;;;;;5091732;28;20193;-64
2024/03/25 04:03:31;;;;;;;3.17;2.63;;;4.90;99.90;;;;;;5091372;28;20253;-64
2024/03/25 04:05:56;;;;;;;2.80;2.50;;;4.90;99.90;;;;;;5091126;28;20719;-63
2024/03/25 04:08:22;;;;;;;4.03;2.80;;;4.90;99.90;;;;;;5091620;28;20160;-63
2024/03/25 04:10:48;;;;;;;1.67;1.57;;;4.90;99.90;;;;;;5090732;28;20279;-63
2024/03/25 04:13:13;;;;;;;3.97;2.67;;;4.90;99.90;;;;;;5090979;28;20176;-63
2024/03/25 04:15:42;;;;;;;3.07;1.87;;;4.80;99.90;;;;;;5090909;28;20638;-63
2024/03/25 04:18:08;;;;;;;2.50;2.33;;;4.80;99.90;;;;;;5073190;28;20237;-63
2024/03/25 04:20:41;;;;;;;2.60;2.22;;;4.70;99.90;;;;;;5091101;28;20208;-63
2024/03/25 04:23:09;;;;;;;8.38;2.38;;;4.80;99.90;;;;;;5091648;28;20175;-63
2024/03/25 04:25:38;;;;;;;2.55;2.35;;;4.80;99.90;;;;;;5073760;28;20207;-63
2024/03/25 04:28:05;;;;;;;2.08;1.75;;;4.70;99.90;;;;;;5095583;28;20637;-63
2024/03/25 04:30:33;;;;;;;2.58;1.80;;;4.70;99.90;;;;;;5094858;28;20604;-62
2024/03/25 04:32:58;;;;;;;2.42;2.22;;;4.70;99.90;;;;;;5094247;28;20169;-63
2024/03/25 04:35:24;;;;;;;2.63;2.23;;;4.50;99.90;;;;;;5095428;28;20188;-63
2024/03/25 04:37:50;;;;;;;2.67;1.70;;;4.60;99.90;;;;;;5092335;28;20222;-64
2024/03/25 04:40:18;;;;;;;2.30;1.90;;;4.70;99.90;;;;;;5094636;28;20188;-63
2024/03/25 04:42:45;;;;;;;4.53;1.50;;;4.60;99.90;;;;;;5094789;28;20650;-64
2024/03/25 04:45:15;;;;;;;3.45;1.90;;;4.40;99.90;;;;;;5094633;28;20187;-62
2024/03/25 04:47:41;;;;;;;2.80;2.17;;;4.50;99.90;;;;;;5076210;28;20216;-64
2024/03/25 04:50:07;;;;;;;2.80;1.97;;;4.40;99.90;;;;;;5094574;28;20650;-63
2024/03/25 04:52:37;;;;;;;1.80;1.70;;;4.40;99.90;;;;;;5094860;28;20173;-62
2024/03/25 04:55:03;;;;;;;2.97;2.45;;;4.30;99.90;;;;;;5076064;28;20260;-63
2024/03/25 04:57:29;;;;;;;5.90;2.35;;;4.30;99.90;;;;;;5094241;28;20469;-63
2024/03/25 04:59:56;;;;;;;2.60;2.17;;;4.40;99.70;;;;;;5094215;28;20212;-63
2024/03/25 05:02:21;;;;;;;5.03;3.00;;;4.40;99.50;;;;;;5094273;28;20231;-63
2024/03/25 05:04:47;;;;;;;2.77;2.27;;;4.50;99.60;;;;;;5093880;28;20241;-63
2024/03/25 05:07:12;;;;;;;3.13;2.13;;;4.30;99.40;;;;;;5094258;28;20238;-63
2024/03/25 05:09:38;;;;;;;2.33;2.10;;;4.20;99.60;;;;;;5093818;28;20181;-63
2024/03/25 05:12:04;;;;;;;2.27;2.07;;;4.40;99.90;;;;;;5094408;28;20177;-63
2024/03/25 05:14:29;;;;;;;3.03;2.67;;;4.40;99.90;;;;;;5094337;28;21000;-63
2024/03/25 05:16:56;;;;;;;2.97;2.20;;;4.50;99.90;;;;;;5094026;28;20211;-63
2024/03/25 05:19:23;;;;;;;2.42;2.22;;;4.50;99.90;;;;;;5093790;28;20188;-63
2024/03/25 05:21:52;;;;;;;5.13;2.00;;;4.40;99.80;;;;;;5094133;28;20188;-62
2024/03/25 05:24:17;;;;;;;2.97;2.45;;;4.40;99.80;;;;;;5094049;28;20187;-64
2024/03/25 05:26:44;;;;;;;3.07;1.70;;;4.40;99.90;;;;;;5091560;28;20189;-63
2024/03/25 05:29:10;;;;;;;2.85;2.08;;;4.50;99.90;;;;;;5074168;28;20298;-62
2024/03/25 05:31:36;;;;;;;11.30;2.03;;;4.60;99.90;;;;;;5093902;28;20252;-63
2024/03/25 05:34:08;;;;;;;2.08;1.83;;;4.60;99.90;;;;;;5094051;28;20568;-63
2024/03/25 05:36:34;;;;;;;2.72;1.95;;;4.60;99.90;;;;;;5093509;28;20173;-63
2024/03/25 05:38:59;;;;;;;3.60;2.60;;;4.60;99.90;;;;;;5092743;28;20195;-63
2024/03/25 05:41:25;;;;;;;2.57;2.47;;;4.60;99.90;;;;;;5094542;28;20708;-63
2024/03/25 05:43:51;;;;;;;1.70;1.53;;;4.60;99.90;;;;;;5094097;28;20481;-64
2024/03/25 05:46:16;;;;;;;5.60;3.13;;;4.60;99.90;;;;;;5094087;28;20184;-63
2024/03/25 05:48:43;;;;;;;4.50;2.40;;;4.60;99.90;;;;;;5093677;28;20172;-64
2024/03/25 05:51:08;;;;;;;3.05;2.45;;;4.60;99.90;;;;;;5093981;28;20638;-64
2024/03/25 05:53:34;;;;;;;4.00;2.53;;;4.50;99.90;;;;;;5093943;28;20184;-63
2024/03/25 05:56:00;;;;;;;2.40;2.17;;;4.40;99.90;;;;;;5093922;28;20178;-64
2024/03/25 05:58:26;;;;;;;3.10;2.80;;;4.40;99.90;;;;;;5093778;28;20253;-63
2024/03/25 06:00:53;;;;;;;3.95;2.40;;;4.50;99.90;;;;;;5141942;23;20488;-59
2024/03/25 06:03:19;;;;;;;2.65;2.45;;;4.50;99.90;;;;;;5134646;27;20175;-59
2024/03/25 06:05:45;;;;;;;1.55;1.45;;;4.50;99.90;;;;;;5134656;27;20232;-59
2024/03/25 06:08:31;;;;;;;2.30;1.93;;;4.50;99.90;;;;;;5134455;27;20203;-59
2024/03/25 06:11:01;;;;;;;2.08;1.75;;;4.50;99.90;;;;;;5133641;27;21082;-59
2024/03/25 06:13:27;;;;;;;7.55;3.17;;;4.50;99.90;;;;;;5134598;27;20243;-58
2024/03/25 06:15:52;;;;;;;3.90;3.47;;;4.60;99.90;;;;;;5133359;27;20263;-57
2024/03/25 06:18:18;;;;;;;6.00;2.00;;;4.70;99.90;;;;;;5134057;27;20184;-59
2024/03/25 06:20:44;;;;;;;3.33;1.70;;;4.80;99.90;;;;;;5134128;27;20183;-59
2024/03/25 06:23:09;;;;;;;2.83;2.30;;;4.90;99.60;;;;;;5134284;27;20160;-58
2024/03/25 06:25:37;;;;;;;1.80;1.70;;;5.00;99.40;;;;;;5134318;27;20705;-58
2024/03/25 06:28:03;;;;;;;2.05;1.88;;;4.90;99.20;;;;;;5134036;27;20242;-59
2024/03/25 06:35:56;;;;;;;2.95;2.75;;;4.70;99.20;;;;;;5134187;27;20232;-58
2024/03/25 06:38:22;;;;;;;6.63;3.97;;;4.60;99.30;;;;;;5134217;27;20168;-59
2024/03/25 06:40:48;;;;;;;3.70;2.50;;;4.60;99.30;;;;;;5133760;27;20209;-59
2024/03/25 06:43:16;;;;;;;2.60;2.00;;;4.70;99.70;;;;;;5133964;27;20168;-58
2024/03/25 06:45:41;;;;;;;3.63;2.15;;;5.10;99.80;;;;;;5134015;27;20564;-58
2024/03/25 06:48:07;;;;;;;2.07;1.77;;;5.50;98.80;;;;;;5133542;27;20217;-59
2024/03/25 06:50:33;;;;;;;2.00;1.83;;;6.00;97.50;;;;;;5133442;27;20614;-59
2024/03/25 06:53:00;;;;;;;2.53;2.35;;;6.60;96.30;;;;;;5127345;27;20294;-59
2024/03/25 06:55:28;;;;;;;3.43;2.40;;;6.70;94.80;;;;;;5133609;27;20610;-58
2024/03/25 06:57:54;;;;;;;4.57;3.53;;;7.00;94.90;;;;;;5133765;27;20251;-58
2024/03/25 07:00:22;;;;;;;2.50;2.30;;;7.10;94.40;;;;;;5133127;27;20219;-59
2024/03/25 07:02:48;;;;;;;1.88;1.65;;;7.10;93.80;;;;;;5133626;27;20258;-59
2024/03/25 07:05:13;;;;;;;2.67;1.70;;;7.20;94.00;;;;;;5133478;27;20170;-59
2024/03/25 07:07:39;;;;;;;1.97;1.87;;;7.50;93.70;;;;;;5133322;27;20205;-59
2024/03/25 07:10:05;;;;;;;3.57;2.00;;;7.70;93.00;;;;;;5133083;27;20206;-59
2024/03/25 07:12:31;;;;;;;4.53;2.28;;;7.90;92.40;;;;;;5133612;27;20724;-59
2024/03/25 07:14:57;;;;;;;1.67;1.57;;;8.20;91.20;;;;;;5133357;27;20206;-58
2024/03/25 07:17:22;;;;;;;1.77;1.27;;;8.70;90.70;;;;;;5133204;27;20178;-59
2024/03/25 07:19:48;;;;;;;1.60;1.50;;;9.40;89.50;;;;;;5132968;27;20432;-59
2024/03/25 07:22:14;;;;;;;1.93;1.73;;;10.20;86.30;;;;;;5133259;27;20175;-58
2024/03/25 07:24:40;;;;;;;2.10;1.40;;;10.90;83.20;;;;;;5132100;27;20258;-60
2024/03/25 07:27:07;;;;;;;1.57;1.47;;;11.60;81.40;;;;;;5133084;27;20539;-59
2024/03/25 07:29:33;;;;;;;2.40;1.63;;;12.80;78.30;;;;;;5132752;27;20565;-58
2024/03/25 07:31:58;;;;;;;0.80;0.80;;;14.10;73.00;;;;;;5133046;27;20408;-60
2024/03/25 07:34:24;;;;;;;2.27;1.23;;;15.50;69.00;;;;;;5132897;27;20194;-60
2024/03/25 07:36:50;;;;;;;1.63;1.53;;;17.30;62.60;;;;;;5132743;27;20182;-60
2024/03/25 07:39:16;;;;;;;0.97;0.83;;;18.80;58.90;;;;;;5132557;27;20649;-60
2024/03/25 07:41:41;;;;;;;1.50;1.03;;;20.50;53.90;;;;;;5133010;27;20412;-61
2024/03/25 07:44:07;;;;;;;1.90;1.80;;;21.80;49.50;;;;;;5132891;27;20163;-61
2024/03/25 07:46:32;;;;;;;1.53;1.43;;;23.20;47.60;;;;;;5132797;27;20191;-61
2024/03/25 07:48:58;;;;;;;1.00;1.00;;;24.40;43.50;;;;;;5132594;27;20519;-60
2024/03/25 07:51:24;;;;;;;2.50;1.70;;;25.10;41.00;;;;;;5132722;27;20224;-61
2024/03/25 07:53:50;;;;;;;5.90;1.40;;;25.10;39.70;;;;;;5132694;27;20167;-61
2024/03/25 07:56:16;;;;;;;2.80;1.33;;;25.20;37.80;;;;;;5132707;27;20172;-61
2024/03/25 07:58:41;;;;;;;1.30;1.20;;;25.30;38.10;;;;;;5132452;28;20484;-61
2024/03/25 08:01:07;;;;;;;2.30;1.70;;;25.80;37.00;;;;;;5132000;27;20256;-61
2024/03/25 08:03:33;;;;;;;2.60;1.40;;;26.20;37.80;;;;;;5132705;28;20175;-61
2024/03/25 08:05:59;;;;;;;1.43;1.27;;;26.70;36.90;;;;;;5132644;28;20168;-61
2024/03/25 08:08:25;;;;;;;2.13;1.20;;;27.20;34.70;;;;;;5132275;28;21030;-61
2024/03/25 08:10:52;;;;;;;2.83;1.27;;;27.50;34.80;;;;;;5132481;28;20183;-61
2024/03/25 08:13:19;;;;;;;1.23;1.13;;;27.30;34.40;;;;;;5132734;28;20175;-61
2024/03/25 08:15:45;;;;;;;1.87;1.20;;;27.60;34.20;;;;;;5114150;28;20413;-62
2024/03/25 08:18:11;;;;;;;3.90;1.57;;;27.90;32.70;;;;;;5132207;28;20417;-61
2024/03/25 08:20:37;;;;;;;2.60;1.60;;;28.20;33.30;;;;;;5132141;28;20241;-62
2024/03/25 08:23:03;;;;;;;1.50;1.40;;;28.00;32.90;;;;;;5132263;28;20206;-62
2024/03/25 08:25:28;;;;;;;1.33;1.03;;;28.20;31.40;;;;;;5132440;28;20409;-60
2024/03/25 08:27:54;;;;;;;1.70;1.00;;;27.70;30.20;;;;;;5132325;28;20448;-61
2024/03/25 08:30:20;;;;;;;1.47;1.00;;;27.30;29.90;;;;;;5132128;28;20226;-61
2024/03/25 08:32:45;;;;;;;2.93;1.20;;;27.20;29.90;;;;;;5132411;28;20337;-61
2024/03/25 08:35:11;;;;;;;2.80;1.23;;;26.80;29.90;;;;;;5132369;28;20168;-61
2024/03/25 08:37:36;;;;;;;1.60;1.13;;;26.00;28.40;;;;;;5132115;28;20172;-61
2024/03/25 08:40:04;;;;;;;1.13;1.03;;;25.40;29.50;;;;;;5131140;28;20183;-61
2024/03/25 08:42:29;;;;;;;3.37;1.40;;;25.50;29.80;;;;;;5131584;28;20171;-61
2024/03/25 08:44:55;;;;;;;1.40;1.10;;;25.90;31.40;;;;;;5132263;28;20478;-60
2024/03/25 08:47:21;;;;;;;2.00;1.00;;;26.60;30.70;;;;;;5132067;28;20199;-61
2024/03/25 08:49:47;;;;;;;4.60;1.43;;;27.20;30.40;;;;;;5131955;28;20248;-61
2024/03/25 08:52:12;;;;;;;2.07;1.10;;;26.70;29.70;;;;;;5132104;28;20261;-61
2024/03/25 08:54:38;;;;;;;1.53;1.20;;;26.40;30.30;;;;;;5132161;28;20953;-62
2024/03/25 08:57:04;;;;;;;1.70;1.30;;;26.60;32.30;;;;;;5132072;28;20168;-61
2024/03/25 08:59:30;;;;;;;3.73;1.20;;;27.10;31.10;;;;;;5131822;28;20661;-61
2024/03/25 09:01:55;;;;;;;1.53;1.43;;;26.80;30.10;;;;;;5132242;28;20412;-61
2024/03/25 09:04:21;;;;;;;2.90;1.37;;;26.10;30.00;;;;;;5132170;28;20167;-61
2024/03/25 09:06:47;;;;;;;2.80;1.23;;;25.20;30.80;;;;;;5131959;28;20234;-61
2024/03/25 09:11:57;;;;;;;1.60;1.20;;;24.20;29.60;;;;;;5132125;27;20941;-60
2024/03/25 09:14:23;;;;;;;1.30;1.20;;;23.60;31.20;;;;;;5134706;27;20439;-61
2024/03/25 09:16:48;;;;;;;2.50;1.20;;;23.80;30.80;;;;;;5135668;27;20216;-61
2024/03/25 09:19:14;;;;;;;2.33;1.30;;;23.40;30.40;;;;;;5135239;27;20172;-61
2024/03/25 09:21:39;;;;;;;3.30;1.37;;;23.30;31.20;;;;;;5135526;27;20163;-60
2024/03/25 09:24:05;;;;;;;1.97;1.23;;;22.90;30.80;;;;;;5135595;27;20548;-61
2024/03/25 09:26:31;;;;;;;1.83;1.23;;;23.40;32.90;;;;;;5135385;27;20215;-61
2024/03/25 09:28:56;;;;;;;2.73;1.10;;;22.50;29.60;;;;;;5135154;27;20420;-61
2024/03/25 09:31:22;;;;;;;1.47;1.10;;;21.90;32.70;;;;;;5135383;27;20195;-60
2024/03/25 09:33:47;;;;;;;4.87;1.10;;;20.90;34.70;;;;;;5135372;27;20587;-61
2024/03/25 09:36:13;;;;;;;1.90;1.30;;;21.00;34.40;;;;;;5135372;27;20163;-61
2024/03/25 09:38:39;;;;;;;2.70;1.43;;;21.10;34.50;;;;;;5135140;27;20171;-61
2024/03/25 09:41:04;;;;;;;2.00;1.13;;;20.20;33.90;;;;;;5134994;27;20229;-60
2024/03/25 09:43:47;;;;;;;1.53;1.10;;;19.50;37.20;;;;;;5135257;27;20542;-61
2024/03/25 09:46:15;;;;;;;1.67;1.40;;;19.50;35.60;;;;;;5134917;27;20246;-60
2024/03/25 09:48:41;;;;;;;1.23;1.10;;;18.50;35.60;;;;;;5135022;27;20417;-59
2024/03/25 09:51:08;;;;;;;1.27;1.17;;;17.90;37.00;;;;;;5134995;27;20392;-60
2024/03/25 09:53:34;;;;;;;1.30;1.00;;;17.00;39.50;;;;;;5134978;27;20446;-60
2024/03/25 09:56:00;;;;;;;1.57;1.30;;;16.20;40.00;;;;;;5134847;27;20401;-60
2024/03/25 09:58:27;;;;;;;1.07;1.07;;;14.80;42.30;;;;;;5134815;27;20634;-59
2024/03/25 10:00:54;;;;;;;1.27;1.20;;;14.30;44.50;;;;;;5134435;27;20202;-60
2024/03/25 10:03:20;;;;;;;1.97;1.03;;;15.10;43.90;;;;;;5135046;27;20954;-59
2024/03/25 10:05:46;;;;;;;4.47;1.47;;;14.80;43.60;;;;;;5134804;27;20460;-59
2024/03/25 10:08:12;;;;;;;1.27;1.10;;;14.20;44.30;;;;;;5134528;27;20451;-60
2024/03/25 10:10:37;;;;;;;1.30;1.03;;;13.80;46.30;;;;;;5134400;27;20188;-60
2024/03/25 10:13:04;;;;;;;1.20;0.97;;;13.70;44.90;;;;;;5134611;27;20518;-60
2024/03/25 10:15:31;;;;;;;1.20;0.90;;;14.70;45.40;;;;;;5134452;27;20171;-59
2024/03/25 10:17:56;;;;;;;1.10;1.00;;;15.90;42.90;;;;;;5134455;27;20408;-59
2024/03/25 10:20:22;;;;;;;2.20;2.10;;;16.50;40.90;;;;;;5134135;27;20516;-60
2024/03/25 10:22:48;;;;;;;2.73;1.50;;;16.60;39.50;;;;;;5134438;27;20252;-60
2024/03/25 10:25:24;;;;;;;1.90;1.33;;;15.90;40.90;;;;;;5133903;27;20184;-59
2024/03/25 10:27:57;;;;;;;2.23;1.50;;;15.00;42.60;;;;;;5134082;27;20440;-60
2024/03/25 10:30:22;;;;;;;1.20;1.10;;;14.90;43.50;;;;;;5133875;27;20425;-60
2024/03/25 10:33:04;;;;;;;4.47;1.33;;;14.40;42.70;;;;;;5134266;27;20435;-59
2024/03/25 10:35:35;;;;;;;1.23;1.00;;;14.20;44.70;;;;;;5134191;27;20925;-59
2024/03/25 10:38:05;;;;;;;3.90;1.07;;;14.00;44.30;;;;;;5134063;27;20456;-60
2024/03/25 10:40:39;;;;;;;1.53;1.30;;;13.40;44.90;;;;;;5133594;27;20437;-60
2024/03/25 10:43:06;;;;;;;1.20;0.90;;;13.10;45.50;;;;;;5134245;27;20492;-60
2024/03/25 10:45:34;;;;;;;1.60;1.30;;;12.80;44.20;;;;;;5134058;27;20898;-60
2024/03/25 10:48:10;;;;;;;1.07;0.90;;;12.80;45.00;;;;;;5133770;27;20537;-60
2024/03/25 10:50:38;;;;;;;1.63;1.33;;;13.00;46.10;;;;;;5133704;27;20432;-60
2024/03/25 10:53:05;;;;;;;3.03;1.30;;;13.30;44.20;;;;;;5133641;27;20933;-60
2024/03/25 10:55:33;;;;;;;4.97;1.37;;;13.40;42.70;;;;;;5133683;27;20407;-59
2024/03/25 10:57:59;;;;;;;2.87;1.43;;;13.60;44.30;;;;;;5133552;27;20417;-60
2024/03/25 11:00:25;;;;;;;2.50;1.50;;;13.70;44.60;;;;;;5133196;27;20455;-60
2024/03/25 11:02:52;;;;;;;1.00;1.00;;;13.70;45.20;;;;;;5133600;27;20488;-59
2024/03/25 11:05:19;;;;;;;1.97;1.30;;;13.70;45.00;;;;;;5133634;27;20555;-60
2024/03/25 11:07:46;;;;;;;1.63;1.53;;;13.60;46.20;;;;;;5133354;27;20532;-60
2024/03/25 11:10:12;;;;;;;1.10;1.03;;;13.60;45.20;;;;;;5132519;27;20489;-60
2024/03/25 11:12:40;;;;;;;1.70;1.60;;;13.00;44.80;;;;;;5133348;27;20435;-60
2024/03/25 11:15:09;;;;;;;1.63;1.10;;;12.50;46.50;;;;;;5133224;27;20401;-59
2024/03/25 11:17:35;;;;;;;1.67;1.50;;;12.00;46.60;;;;;;5133145;27;20406;-60
2024/03/25 11:20:12;;;;;;;1.20;1.10;;;11.80;47.20;;;;;;5132835;27;20436;-60
2024/03/25 11:22:48;;;;;;;0.73;0.73;;;11.50;48.10;;;;;;5133442;27;20931;-59
2024/03/25 11:25:14;;;;;;;0.97;0.97;;;11.50;45.00;;;;;;5133240;27;20171;-60
2024/03/25 11:27:43;;;;;;;1.20;1.07;;;11.30;46.70;;;;;;5133045;27;20792;-59
2024/03/25 11:30:10;;;;;;;0.88;0.85;;;11.10;46.80;;;;;;5132418;27;20248;-60
2024/03/25 11:32:47;;;;;;;1.88;1.05;;;10.80;48.60;;;;;;5133009;27;20175;-59
2024/03/25 11:35:13;;;;;;;1.58;1.02;;;10.50;49.10;;;;;;5132725;27;20173;-59
2024/03/25 11:37:42;;;;;;;1.65;1.45;;;10.10;50.30;;;;;;5132610;27;20514;-59
2024/03/25 11:40:12;;;;;;;1.55;1.20;;;10.20;51.70;;;;;;5132653;27;20195;-59
2024/03/25 11:42:44;;;;;;;2.63;1.10;;;10.50;50.40;;;;;;5132967;27;20171;-59
2024/03/25 11:45:24;;;;;;;0.85;0.85;;;10.20;48.00;;;;;;5132937;27;20550;-59
2024/03/25 11:47:50;;;;;;;1.95;1.00;;;10.00;50.40;;;;;;5132727;27;20298;-59
2024/03/25 11:50:19;;;;;;;0.90;0.90;;;9.30;50.90;;;;;;5132478;27;20282;-59
2024/03/25 11:52:46;;;;;;;7.82;0.88;;;9.00;52.60;;;;;;5132720;27;20191;-59
2024/03/25 11:55:19;;;;;;;1.10;1.00;;;9.00;50.30;;;;;;5132591;27;20289;-59
2024/03/25 11:57:45;;;;;;;1.20;1.02;;;9.20;50.90;;;;;;5132172;27;20175;-59
2024/03/25 12:00:13;;;;;;;1.17;1.00;;;9.50;50.30;;;;;;5175966;22;20603;-62
2024/03/25 12:02:43;;;;;;;1.92;1.15;;;9.80;51.10;;;;;;5111910;28;20649;-61
2024/03/25 12:05:09;;;;;;;1.92;1.50;;;9.60;51.70;;;;;;5102687;28;20181;-61
2024/03/25 12:07:37;;;;;;;2.27;1.10;;;9.70;53.40;;;;;;5091569;28;20211;-61
2024/03/25 12:12:47;;;;;;;2.00;0.90;;;10.20;51.40;;;;;;5071658;28;20180;-61
2024/03/25 12:15:13;;;;;;;1.87;1.77;;;10.20;51.50;;;;;;5071782;28;20627;-61
2024/03/25 12:17:39;;;;;;;0.90;0.90;;;10.30;52.90;;;;;;5071459;28;20404;-61
2024/03/25 12:20:09;;;;;;;3.13;0.90;;;10.30;51.80;;;;;;5071261;28;20216;-61
2024/03/25 12:22:35;;;;;;;1.08;0.98;;;10.40;53.50;;;;;;5071482;28;20200;-61
2024/03/25 12:25:06;;;;;;;1.25;1.15;;;10.50;52.90;;;;;;5071354;28;20170;-62
2024/03/25 12:27:32;;;;;;;1.02;0.93;;;10.50;52.60;;;;;;5071756;28;20665;-61
2024/03/25 12:29:59;;;;;;;0.60;0.60;;;10.80;52.60;;;;;;5074164;28;20219;-61
2024/03/25 12:32:41;;;;;;;1.30;1.20;;;10.50;50.10;;;;;;5071368;28;20161;-64
2024/03/25 12:35:10;;;;;;;1.73;1.33;;;9.50;51.90;;;;;;5072006;28;20181;-64
2024/03/25 12:37:37;;;;;;;3.22;1.30;;;9.00;52.50;;;;;;5071170;28;20251;-64
2024/03/25 12:40:06;;;;;;;1.98;0.77;;;9.00;52.60;;;;;;5070970;28;20222;-64
2024/03/25 12:42:32;;;;;;;0.90;0.85;;;8.90;51.50;;;;;;5071309;28;20173;-64
2024/03/25 12:44:57;;;;;;;1.77;1.17;;;9.00;51.30;;;;;;5071308;28;20180;-64
2024/03/25 12:47:23;;;;;;;1.83;0.80;;;9.30;52.10;;;;;;5072314;28;20201;-64
2024/03/25 12:49:49;;;;;;;1.43;1.03;;;9.60;54.70;;;;;;5074606;28;20213;-64
2024/03/25 12:52:14;;;;;;;0.80;0.77;;;9.70;53.70;;;;;;5074933;28;20545;-64
2024/03/25 12:54:41;;;;;;;1.07;1.00;;;9.50;53.30;;;;;;5074906;28;20173;-63
2024/03/25 12:57:07;;;;;;;1.85;1.45;;;9.30;55.20;;;;;;5074848;28;20178;-63
2024/03/25 12:59:33;;;;;;;1.73;1.58;;;9.50;66.60;;;;;;5074385;28;20184;-63
2024/03/25 13:01:59;;;;;;;1.60;1.50;;;9.50;54.10;;;;;;5074844;28;20185;-64